Time;durP1;ratioP1;P1;durP2;ratioP2;P2;SDS_P1;SDS_P2;PMS_P1;PMS_P2;Temp;Humidity;BMP_temperature;BMP_pressure;BME280_temperature;BME280_humidity;BME280_pressure;Samples;Min_cycle;Max_cycle;Signal;HPM_P1;HPM_P2
2022/10/08 00:01:36;;;;;;;7.90;6.90;;;;;;;-145.49;100.00;62790.56;4963823;28;20034;-83
2022/10/08 00:04:02;;;;;;;7.82;6.65;;;;;;;-145.49;100.00;62790.56;4969587;28;20031;-83
2022/10/08 00:06:31;;;;;;;10.85;8.18;;;;;;;-145.49;100.00;62790.56;4969871;28;20473;-83
2022/10/08 00:09:07;;;;;;;8.85;6.25;;;;;;;-145.49;100.00;62790.56;4978187;28;20041;-84
2022/10/08 00:11:38;;;;;;;9.25;8.05;;;;;;;-145.49;100.00;62790.56;4966283;28;20031;-84
2022/10/08 00:14:06;;;;;;;11.05;7.93;;;;;;;-145.49;100.00;62790.56;4968450;28;20034;-84
2022/10/08 00:16:39;;;;;;;13.10;8.23;;;;;;;-145.49;100.00;62790.56;4984655;28;20042;-83
2022/10/08 00:19:07;;;;;;;;;;;;;;;-145.49;100.00;62790.56;4968277;28;20035;-84
2022/10/08 00:21:36;;;;;;;10.88;6.82;;;;;;;-145.49;100.00;62790.56;4964614;28;19999;-83
2022/10/08 00:24:08;;;;;;;10.32;8.27;;;;;;;-145.49;100.00;62790.56;4942408;28;20038;-84
2022/10/08 00:26:38;;;;;;;12.50;6.78;;;;;;;-145.49;100.00;62790.56;4960214;28;20027;-83
2022/10/08 00:29:11;;;;;;;7.00;6.30;;;;;;;-145.49;100.00;62790.56;4967741;28;20058;-83
2022/10/08 00:31:43;;;;;;;9.40;8.43;;;;;;;-145.49;100.00;62790.56;4979880;28;20119;-84
2022/10/08 00:34:15;;;;;;;11.90;7.50;;;;;;;-145.49;100.00;62790.56;4973091;28;20045;-84
2022/10/08 00:36:46;;;;;;;8.77;6.97;;;;;;;-145.49;100.00;62790.56;4966674;28;20039;-84
2022/10/08 00:39:18;;;;;;;8.60;6.85;;;;;;;-145.49;100.00;62790.56;4970037;28;20539;-84
2022/10/08 00:41:47;;;;;;;7.43;6.65;;;;;;;-145.49;100.00;62790.56;4962453;28;20035;-84
2022/10/08 00:44:50;;;;;;;8.40;7.03;;;;;;;-145.49;100.00;62790.56;4961334;28;20045;-84
2022/10/08 00:47:30;;;;;;;9.82;8.07;;;;;;;-145.49;100.00;62790.56;4966071;28;20042;-84
2022/10/08 00:50:05;;;;;;;9.80;7.82;;;;;;;-145.49;100.00;62790.56;4970676;28;20520;-84
2022/10/08 00:52:35;;;;;;;14.98;8.07;;;;;;;-145.49;100.00;62790.56;4964599;28;20046;-84
2022/10/08 00:55:08;;;;;;;7.60;6.55;;;;;;;-145.49;100.00;62790.56;4979856;28;20394;-84
2022/10/08 00:57:36;;;;;;;9.10;7.05;;;;;;;-145.49;100.00;62790.56;4964900;28;20035;-84
2022/10/08 01:00:21;;;;;;;8.73;6.60;;;;;;;-145.49;100.00;62790.56;4980877;28;20035;-84
2022/10/08 01:02:50;;;;;;;8.27;7.47;;;;;;;-145.49;100.00;62790.56;4961288;28;20043;-84
2022/10/08 01:05:23;;;;;;;10.55;9.38;;;;;;;-145.49;100.00;62790.56;4973550;28;20031;-84
2022/10/08 01:08:10;;;;;;;10.05;8.02;;;;;;;-145.49;100.00;62790.56;4982254;28;20481;-84
2022/10/08 01:11:15;;;;;;;10.32;7.20;;;;;;;-145.49;100.00;62790.56;4966856;28;20038;-84
2022/10/08 01:14:15;;;;;;;8.82;7.93;;;;;;;-145.49;100.00;62790.56;4967787;28;20043;-84
2022/10/08 01:17:02;;;;;;;9.07;8.05;;;;;;;-145.49;100.00;62790.56;4932443;28;20047;-84
2022/10/08 01:20:09;;;;;;;9.05;7.97;;;;;;;-145.49;100.00;62790.56;4974924;28;20038;-84
2022/10/08 01:23:06;;;;;;;9.30;7.55;;;;;;;-145.49;100.00;62790.56;4955216;28;20031;-84
2022/10/08 01:25:57;;;;;;;9.68;8.25;;;;;;;-145.49;100.00;62790.56;4982001;28;20042;-85
2022/10/08 01:28:26;;;;;;;7.97;6.47;;;;;;;-145.49;100.00;62790.56;4963136;28;20707;-85
2022/10/08 01:31:01;;;;;;;10.50;8.18;;;;;;;-145.49;100.00;62790.56;4966453;28;20389;-84
2022/10/08 01:33:36;;;;;;;9.50;6.32;;;;;;;-145.49;100.00;62790.56;4968331;28;20401;-85
2022/10/08 01:36:06;;;;;;;9.80;7.32;;;;;;;-145.49;100.00;62790.56;4978687;28;20552;-85
2022/10/08 01:38:41;;;;;;;10.10;8.00;;;;;;;-145.49;100.00;62790.56;4966962;28;20477;-85
2022/10/08 01:41:10;;;;;;;12.45;7.45;;;;;;;-145.49;100.00;62790.56;4974665;28;20031;-85
2022/10/08 01:43:44;;;;;;;11.70;9.52;;;;;;;-145.49;100.00;62790.56;4963346;28;20027;-85
2022/10/08 01:46:18;;;;;;;15.00;10.10;;;;;;;-145.49;100.00;62790.56;4967966;28;20038;-84
2022/10/08 01:48:57;;;;;;;14.07;9.00;;;;;;;-145.49;100.00;62790.56;4964602;28;20049;-85
2022/10/08 01:51:34;;;;;;;10.05;7.72;;;;;;;-145.49;100.00;62790.56;4966776;28;20043;-85
2022/10/08 01:54:05;;;;;;;11.90;9.00;;;;;;;-145.49;100.00;62790.56;4969755;28;20061;-85
2022/10/08 01:56:35;;;;;;;12.15;9.38;;;;;;;-145.49;100.00;62790.56;4968441;28;20512;-85
2022/10/08 01:59:14;;;;;;;12.77;8.05;;;;;;;-145.49;100.00;62790.56;4971843;28;20035;-85
2022/10/08 02:02:22;;;;;;;9.13;7.72;;;;;;;-145.49;100.00;62790.56;4964970;28;20053;-85
2022/10/08 02:04:55;;;;;;;11.77;7.80;;;;;;;-145.49;100.00;62790.56;4915264;29;20047;-85
2022/10/08 02:07:27;;;;;;;9.60;6.78;;;;;;;-145.49;100.00;62790.56;4913124;29;20049;-85
2022/10/08 02:10:05;;;;;;;9.82;8.40;;;;;;;-145.49;100.00;62790.56;4949939;28;20047;-85
2022/10/08 02:12:35;;;;;;;13.52;7.22;;;;;;;-145.49;100.00;62790.56;4978210;28;20039;-85
2022/10/08 02:15:03;;;;;;;7.90;6.55;;;;;;;-145.49;100.00;62790.56;4985396;28;20042;-85
2022/10/08 02:17:49;;;;;;;9.73;7.03;;;;;;;-145.49;100.00;62790.56;4971531;28;20035;-85
2022/10/08 02:20:32;;;;;;;10.50;7.80;;;;;;;-145.49;100.00;62790.56;4965037;28;20051;-85
2022/10/08 02:23:25;;;;;;;8.40;6.50;;;;;;;-145.49;100.00;62790.56;4964187;28;20046;-85
2022/10/08 02:25:58;;;;;;;9.52;7.07;;;;;;;-145.49;100.00;62790.56;4986072;28;20043;-85
2022/10/08 02:28:55;;;;;;;10.23;7.47;;;;;;;-145.49;100.00;62790.56;4963848;28;20508;-85
2022/10/08 02:31:27;;;;;;;10.27;7.95;;;;;;;-145.49;100.00;62790.56;4961722;28;20051;-85
2022/10/08 02:34:36;;;;;;;10.32;6.50;;;;;;;-145.49;100.00;62790.56;4970183;28;20042;-85
2022/10/08 02:37:12;;;;;;;12.30;7.88;;;;;;;-145.49;100.00;62790.56;4962546;28;20047;-85
2022/10/08 02:39:42;;;;;;;15.15;8.05;;;;;;;-145.49;100.00;62790.56;4973231;28;20153;-85
2022/10/08 02:42:12;;;;;;;14.40;7.47;;;;;;;-145.49;100.00;62790.56;4964977;28;20038;-84
2022/10/08 02:44:48;;;;;;;8.50;7.60;;;;;;;-145.49;100.00;62790.56;4971425;28;20062;-85
2022/10/08 02:47:22;;;;;;;12.40;7.93;;;;;;;-145.49;100.00;62790.56;4967573;28;20034;-85
2022/10/08 02:50:02;;;;;;;12.20;7.97;;;;;;;-145.49;100.00;62790.56;4985752;28;20100;-85
2022/10/08 02:52:39;;;;;;;10.80;7.55;;;;;;;-145.49;100.00;62790.56;4972961;28;20046;-85
2022/10/08 02:55:18;;;;;;;9.05;7.05;;;;;;;-145.49;100.00;62790.56;4963784;28;20035;-84
2022/10/08 02:58:03;;;;;;;8.13;6.70;;;;;;;-145.49;100.00;62790.56;4970881;28;20046;-84
2022/10/08 03:00:40;;;;;;;8.52;7.55;;;;;;;-145.49;100.00;62790.56;4969138;28;20045;-85
2022/10/08 03:03:18;;;;;;;7.85;6.75;;;;;;;-145.49;100.00;62790.56;4964502;28;20401;-85
2022/10/08 03:05:51;;;;;;;12.73;7.72;;;;;;;-145.49;100.00;62790.56;4965922;28;20035;-85
2022/10/08 03:08:20;;;;;;;8.88;7.10;;;;;;;-145.49;100.00;62790.56;4963369;28;20058;-85
2022/10/08 03:10:52;;;;;;;9.93;8.20;;;;;;;-145.49;100.00;62790.56;4964049;28;20038;-85
2022/10/08 03:13:19;;;;;;;10.15;7.20;;;;;;;-145.49;100.00;62790.56;4966919;28;20054;-85
2022/10/08 03:15:52;;;;;;;11.02;8.27;;;;;;;-145.49;100.00;62790.56;4967515;28;20038;-85
2022/10/08 03:18:20;;;;;;;11.35;8.13;;;;;;;-145.49;100.00;62790.56;4973052;28;20042;-85
2022/10/08 03:20:53;;;;;;;13.80;9.07;;;;;;;-145.49;100.00;62790.56;4991460;28;20029;-85
2022/10/08 03:23:26;;;;;;;9.48;7.60;;;;;;;-145.49;100.00;62790.56;4985733;28;20041;-86
2022/10/08 03:25:55;;;;;;;13.98;9.63;;;;;;;-145.49;100.00;62790.56;4975563;28;20045;-84
2022/10/08 03:28:30;;;;;;;10.95;8.38;;;;;;;-145.49;100.00;62790.56;4969656;28;20042;-85
2022/10/08 03:31:04;;;;;;;11.00;8.32;;;;;;;-145.49;100.00;62790.56;4971716;28;20046;-85
2022/10/08 03:33:36;;;;;;;11.23;7.25;;;;;;;-145.49;100.00;62790.56;4964603;28;20046;-84
2022/10/08 03:36:05;;;;;;;9.50;7.43;;;;;;;-145.49;100.00;62790.56;4961789;28;20039;-84
2022/10/08 03:38:36;;;;;;;9.00;7.95;;;;;;;-145.49;100.00;62790.56;4966615;28;20039;-84
2022/10/08 03:41:05;;;;;;;10.05;6.65;;;;;;;-145.49;100.00;62790.56;4962570;28;20039;-85
2022/10/08 03:43:36;;;;;;;8.32;7.05;;;;;;;-145.49;100.00;62790.56;4969163;28;20053;-85
2022/10/08 03:46:08;;;;;;;7.75;6.68;;;;;;;-145.49;100.00;62790.56;4970568;28;20054;-84
2022/10/08 03:48:34;;;;;;;7.72;6.53;;;;;;;-145.49;100.00;62790.56;4972212;28;20046;-84
2022/10/08 03:51:03;;;;;;;8.75;7.57;;;;;;;-145.49;100.00;62790.56;4972425;28;20034;-84
2022/10/08 03:53:33;;;;;;;11.32;7.78;;;;;;;-145.49;100.00;62790.56;4963046;28;20047;-84
2022/10/08 03:56:13;;;;;;;8.63;7.68;;;;;;;-145.49;100.00;62790.56;4958698;28;20053;-84
2022/10/08 03:58:43;;;;;;;10.13;8.05;;;;;;;-145.49;100.00;62790.56;4950203;28;20034;-84
2022/10/08 04:01:16;;;;;;;10.25;7.85;;;;;;;-145.49;100.00;62790.56;4961042;28;20038;-84
2022/10/08 04:03:47;;;;;;;11.23;6.72;;;;;;;-145.49;100.00;62790.56;4967518;28;20053;-84
2022/10/08 04:06:14;;;;;;;8.82;7.35;;;;;;;-145.49;100.00;62790.56;4960470;28;20035;-85
2022/10/08 04:08:44;;;;;;;12.95;9.48;;;;;;;-145.49;100.00;62790.56;4967216;28;20042;-85
2022/10/08 04:11:16;;;;;;;12.82;8.48;;;;;;;-145.49;100.00;62790.56;4966602;28;20421;-85
2022/10/08 04:13:47;;;;;;;8.73;7.22;;;;;;;-145.49;100.00;62790.56;4983891;28;20034;-85
2022/10/08 04:16:16;;;;;;;9.52;7.88;;;;;;;-145.49;100.00;62790.56;4965103;28;20043;-85
2022/10/08 04:18:43;;;;;;;10.93;7.65;;;;;;;-145.49;100.00;62790.56;4984566;28;20031;-85
2022/10/08 04:21:14;;;;;;;10.77;8.88;;;;;;;-145.49;100.00;62790.56;4963505;28;20392;-85
2022/10/08 04:23:41;;;;;;;12.35;7.90;;;;;;;-145.49;100.00;62790.56;4984319;28;20035;-84
2022/10/08 04:26:12;;;;;;;13.07;9.02;;;;;;;-145.49;100.00;62790.56;4946931;28;20039;-84
2022/10/08 04:28:46;;;;;;;9.48;6.82;;;;;;;-145.49;100.00;62790.56;4965779;28;20035;-84
2022/10/08 04:31:20;;;;;;;10.55;7.63;;;;;;;-145.49;100.00;62790.56;4970215;28;21267;-84
2022/10/08 04:33:54;;;;;;;9.93;6.75;;;;;;;-145.49;100.00;62790.56;4970071;28;20393;-85
2022/10/08 04:36:26;;;;;;;8.93;8.02;;;;;;;-145.49;100.00;62790.56;4966848;28;20042;-85
2022/10/08 04:38:54;;;;;;;12.07;8.18;;;;;;;-145.49;100.00;62790.56;4961203;28;20039;-84
2022/10/08 04:41:25;;;;;;;17.17;9.52;;;;;;;-145.49;100.00;62790.56;4968943;28;20057;-84
2022/10/08 04:43:53;;;;;;;12.88;10.32;;;;;;;-145.49;100.00;62790.56;4976493;28;20035;-85
2022/10/08 04:46:23;;;;;;;13.75;10.23;;;;;;;-145.49;100.00;62790.56;4966782;28;20050;-84
2022/10/08 04:48:54;;;;;;;11.70;8.75;;;;;;;-145.49;100.00;62790.56;4980187;28;20481;-84
2022/10/08 04:51:23;;;;;;;12.68;9.98;;;;;;;-145.49;100.00;62790.56;4968483;28;20039;-84
2022/10/08 04:53:50;;;;;;;10.23;9.05;;;;;;;-145.49;100.00;62790.56;4960829;28;20039;-84
2022/10/08 04:56:19;;;;;;;12.48;10.07;;;;;;;-145.49;100.00;62790.56;4950790;28;20488;-83
2022/10/08 04:58:49;;;;;;;9.85;7.35;;;;;;;-145.49;100.00;62790.56;4982479;28;20050;-83
2022/10/08 05:01:19;;;;;;;11.65;9.68;;;;;;;-145.49;100.00;62790.56;4974530;28;20504;-83
2022/10/08 05:03:52;;;;;;;10.27;7.00;;;;;;;-145.49;100.00;62790.56;4989095;28;20366;-83
2022/10/08 05:06:22;;;;;;;8.95;7.72;;;;;;;-145.49;100.00;62790.56;4967997;28;20046;-84
2022/10/08 05:08:54;;;;;;;11.38;8.90;;;;;;;-145.49;100.00;62790.56;4974258;28;20044;-84
2022/10/08 05:11:28;;;;;;;15.10;9.98;;;;;;;-145.49;100.00;62790.56;4973871;28;20385;-85
2022/10/08 05:14:02;;;;;;;10.88;7.72;;;;;;;-145.49;100.00;62790.56;4989182;28;20034;-84
2022/10/08 05:16:31;;;;;;;8.05;6.88;;;;;;;-145.49;100.00;62790.56;4989776;28;20046;-83
2022/10/08 05:18:57;;;;;;;15.05;8.07;;;;;;;-145.49;100.00;62790.56;4985967;28;20068;-83
2022/10/08 05:21:28;;;;;;;14.65;8.18;;;;;;;-145.49;100.00;62790.56;4966961;28;20031;-84
2022/10/08 05:24:07;;;;;;;12.38;8.25;;;;;;;-145.49;100.00;62790.56;4986577;28;20035;-84
2022/10/08 05:26:42;;;;;;;11.68;8.48;;;;;;;-145.49;100.00;62790.56;4972924;28;20039;-84
2022/10/08 05:29:13;;;;;;;9.52;7.78;;;;;;;-145.49;100.00;62790.56;4986022;28;20062;-83
2022/10/08 05:31:39;;;;;;;8.93;7.00;;;;;;;-145.49;100.00;62790.56;4966120;28;20405;-84
2022/10/08 05:34:07;;;;;;;8.60;7.63;;;;;;;-145.49;100.00;62790.56;4975632;23;20023;-73
2022/10/08 05:36:34;;;;;;;14.23;10.38;;;;;;;-145.49;100.00;62790.56;4966147;28;20489;-73
2022/10/08 05:39:06;;;;;;;12.48;9.65;;;;;;;-145.49;100.00;62790.56;4968520;28;20485;-74
2022/10/08 05:41:36;;;;;;;21.40;12.23;;;;;;;-145.49;100.00;62790.56;4988689;28;20034;-74
2022/10/08 05:44:03;;;;;;;13.73;9.00;;;;;;;-145.49;100.00;62790.56;4951136;28;20039;-73
2022/10/08 05:46:34;;;;;;;13.85;10.88;;;;;;;-145.49;100.00;62790.56;4955146;28;20047;-74
2022/10/08 05:49:05;;;;;;;16.85;9.90;;;;;;;-145.49;100.00;62790.56;4964512;28;20062;-74
2022/10/08 05:51:31;;;;;;;14.02;10.07;;;;;;;-145.49;100.00;62790.56;4947510;28;20035;-74
2022/10/08 05:54:00;;;;;;;20.20;13.52;;;;;;;-145.49;100.00;62790.56;4957414;28;20401;-74
2022/10/08 05:56:27;;;;;;;12.35;10.25;;;;;;;-145.49;100.00;62790.56;4945998;29;20043;-74
2022/10/08 05:58:53;;;;;;;13.60;10.15;;;;;;;-145.49;100.00;62790.56;4968225;28;20067;-74
2022/10/08 06:01:30;;;;;;;24.90;10.77;;;;;;;-145.49;100.00;62790.56;4952325;28;20046;-75
2022/10/08 06:03:59;;;;;;;13.30;11.95;;;;;;;-145.49;100.00;62790.56;4964666;28;20039;-75
2022/10/08 06:06:26;;;;;;;17.27;11.02;;;;;;;-145.49;100.00;62790.56;4961980;28;20046;-75
2022/10/08 06:08:54;;;;;;;14.80;11.48;;;;;;;-145.49;100.00;62790.56;4970552;28;20038;-75
2022/10/08 06:11:20;;;;;;;11.63;10.40;;;;;;;-145.49;100.00;62790.56;4952329;28;20050;-74
2022/10/08 06:13:53;;;;;;;16.25;10.75;;;;;;;-145.49;100.00;62790.56;4952619;28;20058;-75
2022/10/08 06:16:28;;;;;;;10.77;9.57;;;;;;;-145.49;100.00;62790.56;4955660;28;20398;-75
2022/10/08 06:18:54;;;;;;;12.80;9.50;;;;;;;-145.49;100.00;62790.56;4963987;28;20046;-75
2022/10/08 06:21:23;;;;;;;13.77;9.60;;;;;;;-145.49;100.00;62790.56;4964649;28;20039;-75
2022/10/08 06:23:52;;;;;;;14.35;11.60;;;;;;;-145.49;100.00;62790.56;4953983;28;20038;-75
2022/10/08 06:26:24;;;;;;;17.60;11.88;;;;;;;-145.49;100.00;62790.56;4954399;28;20039;-75
2022/10/08 06:28:51;;;;;;;18.35;12.55;;;;;;;-145.49;100.00;62790.56;4960645;28;20043;-75
2022/10/08 06:31:17;;;;;;;16.27;12.48;;;;;;;-145.49;100.00;62790.56;4983340;28;20046;-74
2022/10/08 06:33:44;;;;;;;24.20;11.38;;;;;;;-145.49;100.00;62790.56;4980740;28;20131;-75
2022/10/08 06:36:24;;;;;;;14.80;12.73;;;;;;;-145.49;100.00;62790.56;4956757;28;20493;-75
2022/10/08 06:39:02;;;;;;;20.05;12.05;;;;;;;-145.49;100.00;62790.56;4933134;29;20050;-75
2022/10/08 06:41:34;;;;;;;15.57;9.68;;;;;;;-145.49;100.00;62790.56;4962411;28;20125;-75
2022/10/08 06:44:02;;;;;;;16.33;9.80;;;;;;;-145.49;100.00;62790.56;4946565;28;20035;-75
2022/10/08 06:46:30;;;;;;;12.73;10.88;;;;;;;-145.49;100.00;62790.56;4953730;28;20413;-74
2022/10/08 06:48:57;;;;;;;14.73;9.88;;;;;;;-145.49;100.00;62790.56;4967786;28;20050;-75
2022/10/08 06:51:23;;;;;;;15.65;11.07;;;;;;;-145.49;100.00;62790.56;4980383;28;20456;-75
2022/10/08 06:53:55;;;;;;;11.95;10.10;;;;;;;-145.49;100.00;62790.56;4952931;28;20039;-74
2022/10/08 06:56:22;;;;;;;13.63;9.83;;;;;;;-145.49;100.00;62790.56;4951262;28;20050;-75
2022/10/08 06:58:52;;;;;;;12.70;11.38;;;;;;;-145.49;100.00;62790.56;4954737;28;20489;-75
2022/10/08 07:01:28;;;;;;;10.82;9.10;;;;;;;-145.49;100.00;62790.56;4966941;28;20054;-74
2022/10/08 07:03:59;;;;;;;13.15;10.77;;;;;;;-145.49;100.00;62790.56;4950082;28;20034;-74
2022/10/08 07:06:26;;;;;;;13.40;10.93;;;;;;;-145.49;100.00;62790.56;4946131;28;20406;-75
2022/10/08 07:08:59;;;;;;;12.20;9.38;;;;;;;-145.49;100.00;62790.56;4955676;28;20050;-72
2022/10/08 07:11:26;;;;;;;14.93;12.73;;;;;;;-145.49;100.00;62790.56;4947550;28;20050;-74
2022/10/08 07:13:56;;;;;;;14.25;10.98;;;;;;;-145.49;100.00;62790.56;4968782;28;20043;-74
2022/10/08 07:16:29;;;;;;;13.75;11.15;;;;;;;-145.49;100.00;62790.56;4961264;28;20031;-75
2022/10/08 07:18:59;;;;;;;16.58;11.30;;;;;;;-145.49;100.00;62790.56;4947790;28;20374;-74
2022/10/08 07:21:28;;;;;;;12.02;10.18;;;;;;;-145.49;100.00;62790.56;4950934;28;20039;-75
2022/10/08 07:23:59;;;;;;;14.20;9.90;;;;;;;-145.49;100.00;62790.56;4951007;28;20473;-74
2022/10/08 07:26:31;;;;;;;16.25;11.45;;;;;;;-145.49;100.00;62790.56;4950794;29;20039;-75
2022/10/08 07:28:57;;;;;;;10.73;8.40;;;;;;;-145.49;100.00;62790.56;4946135;28;20051;-75
2022/10/08 07:31:26;;;;;;;15.63;9.98;;;;;;;-145.49;100.00;62790.56;4952552;28;20409;-74
2022/10/08 07:33:53;;;;;;;13.27;9.02;;;;;;;-145.49;100.00;62790.56;4953123;28;20409;-75
2022/10/08 07:36:23;;;;;;;10.63;9.63;;;;;;;-145.49;100.00;62790.56;4950139;28;20043;-74
2022/10/08 07:39:05;;;;;;;17.30;10.25;;;;;;;-145.49;100.00;62790.56;4954698;28;20116;-75
2022/10/08 07:41:31;;;;;;;15.25;10.57;;;;;;;-145.49;100.00;62790.56;4933629;29;20062;-75
2022/10/08 07:43:59;;;;;;;18.33;12.65;;;;;;;-145.49;100.00;62790.56;4950310;28;20038;-74
2022/10/08 07:46:30;;;;;;;12.85;9.38;;;;;;;-145.49;100.00;62790.56;4951852;28;20046;-74
2022/10/08 07:49:00;;;;;;;14.05;10.25;;;;;;;-145.49;100.00;62790.56;4956285;28;20035;-74
2022/10/08 07:51:33;;;;;;;16.90;8.93;;;;;;;-145.49;100.00;62790.56;4956629;28;20038;-74
2022/10/08 07:54:03;;;;;;;9.45;7.45;;;;;;;-145.49;100.00;62790.56;4946844;28;20031;-73
2022/10/08 07:56:32;;;;;;;13.43;7.63;;;;;;;-145.49;100.00;62790.56;4957901;28;20043;-73
2022/10/08 07:58:59;;;;;;;14.55;7.88;;;;;;;-145.49;100.00;62790.56;4944564;28;20046;-74
2022/10/08 08:01:29;;;;;;;11.40;8.05;;;;;;;-145.49;100.00;62790.56;4969107;28;20039;-76
2022/10/08 08:04:15;;;;;;;15.95;7.95;;;;;;;-145.49;100.00;62790.56;4951505;28;20035;-74
2022/10/08 08:06:44;;;;;;;11.35;6.45;;;;;;;-145.49;100.00;62790.56;4963217;28;20031;-74
2022/10/08 08:09:11;;;;;;;10.70;5.97;;;;;;;-145.49;100.00;62790.56;4973422;28;20393;-74
2022/10/08 08:11:39;;;;;;;8.98;5.43;;;;;;;-145.49;100.00;62790.56;4958540;28;20397;-74
2022/10/08 08:14:11;;;;;;;7.07;5.32;;;;;;;-145.49;100.00;62790.56;4954682;28;20410;-74
2022/10/08 08:16:37;;;;;;;7.53;5.57;;;;;;;-145.49;100.00;62790.56;4953174;28;20039;-74
2022/10/08 08:19:04;;;;;;;13.07;5.13;;;;;;;-145.49;100.00;62790.56;4952360;28;20043;-74
2022/10/08 08:21:33;;;;;;;6.60;4.50;;;;;;;-145.49;100.00;62790.56;4943645;28;20043;-74
2022/10/08 08:24:06;;;;;;;11.45;3.90;;;;;;;-145.49;100.00;62790.56;4948852;28;20516;-74
2022/10/08 08:26:36;;;;;;;8.73;3.70;;;;;;;-145.49;100.00;62790.56;4954296;28;20043;-73
2022/10/08 08:29:11;;;;;;;6.18;3.22;;;;;;;-145.49;100.00;62790.56;4974118;28;20043;-73
2022/10/08 08:31:42;;;;;;;8.13;4.63;;;;;;;-145.49;100.00;62790.56;4968057;28;20047;-73
2022/10/08 08:34:15;;;;;;;15.20;8.05;;;;;;;-145.49;100.00;62790.56;4958067;28;20043;-73
2022/10/08 08:36:44;;;;;;;10.25;2.85;;;;;;;-145.49;100.00;62790.56;4954440;28;20027;-74
2022/10/08 08:39:17;;;;;;;7.72;3.97;;;;;;;-145.49;100.00;62790.56;4974682;28;20043;-73
2022/10/08 08:42:10;;;;;;;7.85;4.18;;;;;;;-145.49;100.00;62790.56;4952129;28;20370;-73
2022/10/08 08:44:41;;;;;;;4.35;3.20;;;;;;;-145.49;100.00;62790.56;4949172;23;20401;-73
2022/10/08 08:47:17;;;;;;;9.05;4.90;;;;;;;-145.49;100.00;62790.56;4961012;28;20481;-74
2022/10/08 08:49:51;;;;;;;9.95;3.85;;;;;;;-145.49;100.00;62790.56;4969551;28;20043;-74
2022/10/08 08:52:21;;;;;;;11.88;4.18;;;;;;;-145.49;100.00;62790.56;4966889;28;20027;-73
2022/10/08 08:54:49;;;;;;;11.25;3.92;;;;;;;-145.49;100.00;62790.56;4964939;28;20405;-73
2022/10/08 08:57:18;;;;;;;14.82;5.35;;;;;;;-145.49;100.00;62790.56;4957746;28;20043;-73
2022/10/08 08:59:46;;;;;;;8.32;3.28;;;;;;;-145.49;100.00;62790.56;4955709;28;20047;-74
2022/10/08 09:02:25;;;;;;;7.50;3.80;;;;;;;-145.49;100.00;62790.56;4944967;28;20397;-73
2022/10/08 09:04:56;;;;;;;9.57;4.10;;;;;;;-145.49;100.00;62790.56;4957683;28;20047;-74
2022/10/08 09:07:32;;;;;;;12.80;4.60;;;;;;;-145.49;100.00;62790.56;4950220;28;20038;-74
2022/10/08 09:10:24;;;;;;;13.43;5.45;;;;;;;-145.49;100.00;62790.56;4955596;28;20037;-73
2022/10/08 09:12:54;;;;;;;7.07;3.97;;;;;;;-145.49;100.00;62790.56;4960519;28;20038;-74
2022/10/08 09:15:28;;;;;;;12.13;3.83;;;;;;;-145.49;100.00;62790.56;4959538;28;20436;-73
2022/10/08 09:18:01;;;;;;;13.88;4.57;;;;;;;-145.49;100.00;62790.56;4962073;28;20034;-74
2022/10/08 09:20:29;;;;;;;7.75;3.83;;;;;;;-145.49;100.00;62790.56;4956556;28;20031;-74
2022/10/08 09:22:56;;;;;;;13.07;5.28;;;;;;;-145.49;100.00;62790.56;4953698;28;20043;-74
2022/10/08 09:25:31;;;;;;;12.52;4.32;;;;;;;-145.49;100.00;62790.56;4956156;28;20039;-74
2022/10/08 09:28:03;;;;;;;11.93;4.05;;;;;;;-145.49;100.00;62790.56;4947564;28;20486;-74
2022/10/08 09:30:43;;;;;;;8.38;3.63;;;;;;;-145.49;100.00;62790.56;4960124;28;20042;-74
2022/10/08 09:33:12;;;;;;;19.45;4.68;;;;;;;-145.49;100.00;62790.56;4961983;28;20497;-75
2022/10/08 09:35:43;;;;;;;4.78;3.35;;;;;;;-145.49;100.00;62790.56;4958722;28;20047;-75
2022/10/08 09:38:19;;;;;;;10.27;3.65;;;;;;;-145.49;100.00;62790.56;4949249;28;20051;-75
2022/10/08 09:41:17;;;;;;;13.82;3.95;;;;;;;-145.49;100.00;62790.56;4938135;28;20038;-75
2022/10/08 09:43:44;;;;;;;7.80;2.67;;;;;;;-145.49;100.00;62790.56;4950845;28;20062;-76
2022/10/08 09:46:30;;;;;;;6.88;2.05;;;;;;;-145.49;100.00;62790.56;4979882;28;20115;-75
2022/10/08 09:49:20;;;;;;;3.40;1.80;;;;;;;-145.49;100.00;62790.56;4960239;28;20031;-75
2022/10/08 09:51:49;;;;;;;5.13;2.83;;;;;;;-145.49;100.00;62790.56;4939853;28;20035;-75
2022/10/08 09:54:26;;;;;;;7.85;3.50;;;;;;;-145.49;100.00;62790.56;4960142;28;20512;-75
2022/10/08 09:56:59;;;;;;;5.75;2.22;;;;;;;-145.49;100.00;62790.56;4951880;28;20509;-75
2022/10/08 09:59:34;;;;;;;3.92;1.88;;;;;;;-145.49;100.00;62790.56;4948630;28;20662;-75
2022/10/08 10:02:19;;;;;;;5.28;2.33;;;;;;;-145.49;100.00;62790.56;4951862;28;20047;-75
2022/10/08 10:04:45;;;;;;;6.45;2.08;;;;;;;-145.49;100.00;62790.56;4954868;28;20035;-75
2022/10/08 10:07:14;;;;;;;10.35;2.00;;;;;;;-145.49;100.00;62790.56;4955614;28;20046;-76
2022/10/08 10:09:47;;;;;;;8.48;2.25;;;;;;;-145.49;100.00;62790.56;4957973;28;20035;-75
2022/10/08 10:12:19;;;;;;;4.82;2.03;;;;;;;-145.49;100.00;62790.56;4950226;28;20043;-76
2022/10/08 10:14:49;;;;;;;4.32;2.08;;;;;;;-145.49;100.00;62790.56;4952785;28;20051;-75
2022/10/08 10:17:27;;;;;;;5.15;1.52;;;;;;;-145.49;100.00;62790.56;4943085;28;20050;-75
2022/10/08 10:20:04;;;;;;;3.50;2.08;;;;;;;-145.49;100.00;62790.56;4960128;28;20047;-75
2022/10/08 10:22:42;;;;;;;3.83;1.92;;;;;;;-145.49;100.00;62790.56;4951582;28;20394;-75
2022/10/08 10:25:37;;;;;;;2.58;1.35;;;;;;;-145.49;100.00;62790.56;4953209;28;20493;-75
2022/10/08 10:28:12;;;;;;;6.13;1.50;;;;;;;-145.49;100.00;62790.56;4960114;28;20047;-76
2022/10/08 10:30:55;;;;;;;4.32;1.80;;;;;;;-145.49;100.00;62790.56;4987082;28;20501;-75
2022/10/08 10:33:29;;;;;;;7.70;2.40;;;;;;;-145.49;100.00;62790.56;4954838;29;20043;-75
2022/10/08 10:36:01;;;;;;;5.25;2.25;;;;;;;-145.49;100.00;62790.56;4953009;29;20508;-75
2022/10/08 10:38:35;;;;;;;8.57;2.47;;;;;;;-145.49;100.00;62790.56;4948351;29;20047;-75
2022/10/08 10:41:14;;;;;;;2.30;1.50;;;;;;;-145.49;100.00;62790.56;4956622;28;20038;-76
2022/10/08 10:43:56;;;;;;;2.38;1.45;;;;;;;-145.49;100.00;62790.56;4949402;28;20047;-75
2022/10/08 10:46:33;;;;;;;6.03;1.83;;;;;;;-145.49;100.00;62790.56;4944499;29;20040;-75
2022/10/08 10:48:59;;;;;;;3.88;1.70;;;;;;;-145.49;100.00;62790.56;4947238;29;20035;-75
2022/10/08 10:51:32;;;;;;;4.68;1.52;;;;;;;-145.49;100.00;62790.56;4947257;29;20047;-75
2022/10/08 10:54:03;;;;;;;8.73;1.67;;;;;;;-145.49;100.00;62790.56;4961340;28;20036;-75
2022/10/08 10:56:37;;;;;;;2.28;1.30;;;;;;;-145.49;100.00;62790.56;4951150;28;20058;-75
2022/10/08 10:59:39;;;;;;;3.00;1.95;;;;;;;-145.49;100.00;62790.56;4966734;28;20047;-75
2022/10/08 11:02:12;;;;;;;2.17;1.35;;;;;;;-145.49;100.00;62790.56;4950838;28;20043;-75
2022/10/08 11:04:49;;;;;;;3.58;1.67;;;;;;;-145.49;100.00;62790.56;4958764;28;20038;-75
2022/10/08 11:07:33;;;;;;;5.43;1.73;;;;;;;-145.49;100.00;62790.56;4961712;28;20054;-75
2022/10/08 11:10:15;;;;;;;4.30;1.52;;;;;;;-145.49;100.00;62790.56;4956221;28;20039;-75
2022/10/08 11:13:01;;;;;;;1.77;1.38;;;;;;;-145.49;100.00;62790.56;4973335;28;20054;-75
2022/10/08 11:15:41;;;;;;;1.98;1.67;;;;;;;-145.49;100.00;62790.56;4950609;29;20084;-75
2022/10/08 11:18:19;;;;;;;2.08;1.42;;;;;;;-145.49;100.00;62790.56;4941765;29;20043;-74
2022/10/08 11:20:56;;;;;;;3.88;1.65;;;;;;;-145.49;100.00;62790.56;4956169;28;20386;-75
2022/10/08 11:23:41;;;;;;;4.63;1.85;;;;;;;-145.49;100.00;62790.56;4952090;28;20035;-75
2022/10/08 11:26:19;;;;;;;1.48;0.95;;;;;;;-145.49;100.00;62790.56;4949742;28;20047;-74
2022/10/08 11:28:48;;;;;;;3.60;1.33;;;;;;;-145.49;100.00;62790.56;4950887;28;20031;-74
2022/10/08 11:31:14;;;;;;;3.70;2.15;;;;;;;-145.49;100.00;62790.56;4954621;28;20058;-74
2022/10/08 11:33:43;;;;;;;3.45;1.60;;;;;;;-145.49;100.00;62790.56;4952721;28;20039;-75